Time;durP1;ratioP1;P1;durP2;ratioP2;P2;SDS_P1;SDS_P2;PMS_P1;PMS_P2;Temp;Humidity;BMP_temperature;BMP_pressure;BME280_temperature;BME280_humidity;BME280_pressure;Samples;Min_cycle;Max_cycle;Signal;HPM_P1;HPM_P2
2021/06/21 00:00:54;;;;;;;3.08;1.90;;;17.90;94.50;;;;;;5086530;28;20221;-71
2021/06/21 00:03:20;;;;;;;2.05;1.95;;;17.80;94.70;;;;;;5085247;28;20214;-71
2021/06/21 00:05:45;;;;;;;3.85;2.17;;;17.80;94.80;;;;;;5081151;28;20265;-71
2021/06/21 00:08:11;;;;;;;2.42;2.22;;;17.80;94.70;;;;;;5088756;28;20277;-71
2021/06/21 00:10:37;;;;;;;1.90;1.90;;;17.70;94.70;;;;;;5089343;28;20743;-71
2021/06/21 00:13:03;;;;;;;1.90;1.77;;;17.70;94.50;;;;;;5090353;28;20209;-71
2021/06/21 00:15:29;;;;;;;2.00;1.92;;;17.70;94.30;;;;;;5086367;28;20267;-71
2021/06/21 00:17:56;;;;;;;2.05;1.95;;;17.70;94.30;;;;;;5084643;28;20272;-71
2021/06/21 00:20:22;;;;;;;2.55;2.38;;;17.70;94.10;;;;;;5103197;28;20186;-71
2021/06/21 00:22:48;;;;;;;2.92;2.78;;;17.70;94.30;;;;;;5088976;28;20178;-71
2021/06/21 00:25:15;;;;;;;2.70;2.60;;;17.70;94.20;;;;;;5094943;28;20317;-70
2021/06/21 00:27:41;;;;;;;2.85;2.55;;;17.60;94.20;;;;;;5088291;28;20182;-71
2021/06/21 00:30:10;;;;;;;3.05;2.95;;;17.60;94.60;;;;;;5100508;28;20214;-70
2021/06/21 00:32:38;;;;;;;2.83;2.72;;;17.60;94.90;;;;;;5089304;28;20182;-70
2021/06/21 00:35:04;;;;;;;3.50;3.20;;;17.50;95.20;;;;;;5088575;28;20186;-70
2021/06/21 00:37:30;;;;;;;2.80;2.60;;;17.50;95.40;;;;;;5089588;28;20182;-70
2021/06/21 00:39:55;;;;;;;3.10;2.75;;;17.50;95.50;;;;;;5088674;28;20213;-71
2021/06/21 00:42:21;;;;;;;3.05;2.47;;;17.50;95.50;;;;;;5088375;28;20231;-71
2021/06/21 00:44:47;;;;;;;3.83;2.83;;;17.50;95.70;;;;;;5089819;28;20178;-71
2021/06/21 00:47:13;;;;;;;2.80;2.58;;;17.40;95.70;;;;;;5094126;28;20179;-71
2021/06/21 00:49:40;;;;;;;2.88;2.38;;;17.40;95.40;;;;;;5088715;28;20277;-71
2021/06/21 00:52:11;;;;;;;3.28;2.33;;;17.40;95.40;;;;;;5086833;28;20324;-71
2021/06/21 00:54:38;;;;;;;3.65;2.03;;;17.40;95.00;;;;;;5085081;28;20214;-71
2021/06/21 00:57:04;;;;;;;2.30;2.15;;;17.40;95.20;;;;;;5085254;28;20648;-70
2021/06/21 00:59:29;;;;;;;2.50;2.35;;;17.30;95.30;;;;;;5088704;28;20225;-71
2021/06/21 01:01:55;;;;;;;2.17;2.15;;;17.30;95.40;;;;;;5089253;28;20178;-70
2021/06/21 01:04:21;;;;;;;2.20;2.20;;;17.30;95.40;;;;;;5088985;28;20295;-71
2021/06/21 01:06:47;;;;;;;2.35;2.25;;;17.20;95.40;;;;;;5086592;28;20194;-70
2021/06/21 01:09:13;;;;;;;2.28;2.28;;;17.20;95.40;;;;;;5088577;28;20182;-70
2021/06/21 01:11:55;;;;;;;2.08;1.98;;;17.20;95.50;;;;;;5087032;28;20222;-72
2021/06/21 01:14:24;;;;;;;2.97;2.22;;;17.20;95.00;;;;;;5087570;28;20247;-72
2021/06/21 01:17:14;;;;;;;3.17;2.22;;;17.20;95.30;;;;;;5087139;28;20193;-70
2021/06/21 01:19:52;;;;;;;2.97;2.72;;;17.20;95.20;;;;;;5084035;28;20698;-70
2021/06/21 01:22:39;;;;;;;2.88;2.70;;;17.20;95.30;;;;;;5087394;28;20213;-70
2021/06/21 01:25:20;;;;;;;2.30;2.20;;;17.10;95.60;;;;;;5086358;28;20201;-71
2021/06/21 01:27:57;;;;;;;2.35;2.25;;;17.10;95.80;;;;;;5088370;28;20190;-71
2021/06/21 01:31:02;;;;;;;2.88;2.33;;;17.10;95.70;;;;;;5088682;28;20666;-70
2021/06/21 01:33:29;;;;;;;2.33;2.22;;;17.10;95.80;;;;;;5024349;28;20200;-70
2021/06/21 01:36:01;;;;;;;2.38;1.95;;;17.00;96.00;;;;;;5022770;28;20307;-70
2021/06/21 01:38:37;;;;;;;3.42;2.20;;;17.00;95.90;;;;;;5023635;28;20235;-70
2021/06/21 01:41:06;;;;;;;2.30;2.10;;;16.90;95.70;;;;;;5024134;28;20870;-70
2021/06/21 01:43:40;;;;;;;2.40;2.30;;;16.90;96.00;;;;;;5023762;28;20231;-71
2021/06/21 01:46:10;;;;;;;2.28;1.75;;;16.90;95.90;;;;;;5013653;28;20188;-71
2021/06/21 01:48:48;;;;;;;2.50;2.30;;;16.90;96.10;;;;;;5024844;28;20192;-70
2021/06/21 01:51:17;;;;;;;2.33;2.22;;;16.90;95.80;;;;;;5024351;28;20187;-71
2021/06/21 01:53:47;;;;;;;2.00;1.92;;;16.80;96.40;;;;;;5011092;28;20650;-71
2021/06/21 01:56:20;;;;;;;2.60;2.33;;;16.80;96.40;;;;;;5018433;28;20273;-71
2021/06/21 01:58:49;;;;;;;1.98;1.88;;;16.80;96.50;;;;;;5027279;28;20210;-71
2021/06/21 02:01:17;;;;;;;2.05;1.95;;;16.80;96.90;;;;;;5025226;28;20180;-71
2021/06/21 02:03:47;;;;;;;2.28;2.22;;;16.80;96.90;;;;;;5024300;28;20196;-71
2021/06/21 02:06:14;;;;;;;2.47;2.38;;;16.70;96.80;;;;;;5001494;28;20176;-71
2021/06/21 02:08:42;;;;;;;2.42;2.22;;;16.70;97.40;;;;;;5024326;28;20598;-71
2021/06/21 02:11:09;;;;;;;2.92;2.72;;;16.60;97.60;;;;;;5079048;28;20191;-71
2021/06/21 02:13:36;;;;;;;2.28;2.17;;;16.60;97.70;;;;;;5085521;28;20181;-71
2021/06/21 02:16:03;;;;;;;2.03;1.92;;;16.60;97.90;;;;;;5087003;28;20198;-71
2021/06/21 02:18:30;;;;;;;3.03;2.72;;;16.60;98.00;;;;;;5084790;28;20213;-71
2021/06/21 02:20:57;;;;;;;2.55;2.45;;;16.50;98.30;;;;;;5087319;28;20587;-71
2021/06/21 02:23:24;;;;;;;2.65;2.55;;;16.50;98.50;;;;;;5086946;28;20192;-71
2021/06/21 02:25:52;;;;;;;2.53;2.50;;;16.50;98.50;;;;;;5086729;28;20659;-71
2021/06/21 02:28:19;;;;;;;2.70;2.60;;;16.40;98.50;;;;;;5076967;28;20174;-71
2021/06/21 02:30:50;;;;;;;3.80;2.47;;;16.40;98.50;;;;;;5087345;28;20174;-71
2021/06/21 02:33:17;;;;;;;2.40;2.30;;;16.30;98.10;;;;;;5094737;28;20185;-71
2021/06/21 02:35:44;;;;;;;1.85;1.75;;;16.30;98.10;;;;;;5087242;28;20194;-72
2021/06/21 02:38:10;;;;;;;3.78;2.00;;;16.30;98.00;;;;;;5081438;28;20202;-71
2021/06/21 02:40:37;;;;;;;1.98;1.98;;;16.20;98.00;;;;;;5087510;28;20871;-71
2021/06/21 02:43:03;;;;;;;2.20;2.10;;;16.20;97.80;;;;;;5085158;28;20589;-71
2021/06/21 02:45:29;;;;;;;2.20;2.10;;;16.20;97.60;;;;;;5087166;28;20182;-71
2021/06/21 02:47:55;;;;;;;2.13;2.05;;;16.20;98.10;;;;;;5087979;28;20229;-71
2021/06/21 02:50:22;;;;;;;4.70;2.20;;;16.20;98.50;;;;;;5087282;28;20201;-71
2021/06/21 02:53:18;;;;;;;2.15;2.15;;;16.10;98.30;;;;;;5085687;28;20269;-71
2021/06/21 02:56:02;;;;;;;6.90;1.90;;;16.10;98.00;;;;;;5079441;28;20187;-71
2021/06/21 02:58:31;;;;;;;1.73;1.73;;;16.10;98.30;;;;;;5082326;28;20206;-71
2021/06/21 03:01:01;;;;;;;2.58;2.47;;;16.00;98.50;;;;;;5086675;28;20211;-71
2021/06/21 03:03:32;;;;;;;2.80;1.98;;;16.00;98.50;;;;;;5072796;28;20178;-70
2021/06/21 03:05:59;;;;;;;2.17;2.08;;;16.00;98.40;;;;;;5080695;28;20320;-70
2021/06/21 03:08:27;;;;;;;1.60;1.60;;;16.00;98.20;;;;;;5083007;28;20193;-70
2021/06/21 03:10:55;;;;;;;1.60;1.60;;;16.00;98.10;;;;;;5082289;28;20178;-71
2021/06/21 03:13:21;;;;;;;1.40;1.40;;;16.00;97.90;;;;;;5084941;28;20182;-71
2021/06/21 03:15:50;;;;;;;2.22;1.77;;;16.00;97.70;;;;;;5086093;28;20594;-71
2021/06/21 03:18:18;;;;;;;4.10;2.05;;;16.00;97.60;;;;;;5087387;28;20212;-71
2021/06/21 03:20:44;;;;;;;1.35;1.30;;;16.00;97.70;;;;;;5090684;28;20259;-71
2021/06/21 03:23:10;;;;;;;6.05;1.85;;;16.00;97.70;;;;;;5089779;28;20182;-71
2021/06/21 03:25:36;;;;;;;1.75;1.75;;;16.00;97.80;;;;;;5091311;28;20579;-71
2021/06/21 03:28:10;;;;;;;1.70;1.65;;;16.00;97.80;;;;;;5091017;28;20178;-71
2021/06/21 03:30:41;;;;;;;2.55;2.38;;;16.10;97.50;;;;;;5086864;28;20186;-71
2021/06/21 03:33:07;;;;;;;2.20;2.10;;;16.10;97.70;;;;;;5090503;28;20205;-71
2021/06/21 03:35:33;;;;;;;3.47;2.10;;;16.10;97.90;;;;;;5090832;28;20178;-71
2021/06/21 03:38:18;;;;;;;2.38;2.28;;;16.10;97.80;;;;;;5088473;28;20193;-71
2021/06/21 03:40:45;;;;;;;4.22;2.28;;;16.20;97.40;;;;;;5088046;28;20184;-71
2021/06/21 03:43:12;;;;;;;2.45;2.20;;;16.20;97.90;;;;;;5089020;28;20253;-71
2021/06/21 03:45:38;;;;;;;2.20;2.10;;;16.20;97.90;;;;;;5085947;28;20583;-71
2021/06/21 03:48:04;;;;;;;2.22;2.17;;;16.20;97.90;;;;;;5084305;28;20175;-71
2021/06/21 03:50:30;;;;;;;2.90;2.70;;;16.20;97.90;;;;;;5085374;28;20178;-71
2021/06/21 03:52:56;;;;;;;2.55;2.45;;;16.30;97.90;;;;;;5083541;28;20186;-71
2021/06/21 03:55:22;;;;;;;1.83;1.83;;;16.30;98.00;;;;;;5085390;28;20181;-70
2021/06/21 03:57:51;;;;;;;2.72;2.63;;;16.30;97.80;;;;;;5084982;28;20183;-71
2021/06/21 04:00:25;;;;;;;2.35;2.25;;;16.30;97.80;;;;;;5086023;28;20236;-71
2021/06/21 04:02:51;;;;;;;3.50;3.30;;;16.40;97.60;;;;;;5087100;28;20652;-73
2021/06/21 04:05:19;;;;;;;6.15;3.33;;;16.40;98.10;;;;;;5088229;28;20319;-73
2021/06/21 04:07:45;;;;;;;3.58;3.38;;;16.40;98.10;;;;;;5084511;28;20186;-73
2021/06/21 04:10:14;;;;;;;3.25;2.90;;;16.40;98.20;;;;;;5089212;28;20178;-73
2021/06/21 04:12:41;;;;;;;3.08;2.80;;;16.40;98.50;;;;;;5088310;28;20182;-73
2021/06/21 04:15:11;;;;;;;3.53;3.33;;;16.40;98.40;;;;;;5090791;28;20196;-73
2021/06/21 04:17:38;;;;;;;3.53;3.22;;;16.50;98.30;;;;;;5093772;28;20678;-74
2021/06/21 04:20:17;;;;;;;3.67;2.80;;;16.50;98.50;;;;;;5088555;28;20633;-73
2021/06/21 04:22:43;;;;;;;2.78;2.50;;;16.60;98.10;;;;;;5088776;28;20181;-73
2021/06/21 04:25:12;;;;;;;2.88;2.67;;;16.60;98.00;;;;;;5088152;28;20182;-74
2021/06/21 04:27:38;;;;;;;4.43;2.78;;;16.70;97.70;;;;;;5087856;28;20186;-74
2021/06/21 04:30:07;;;;;;;2.65;2.55;;;16.80;97.60;;;;;;5088253;28;20178;-74
2021/06/21 04:32:33;;;;;;;2.80;2.58;;;16.80;97.40;;;;;;5089323;28;20264;-74
2021/06/21 04:34:58;;;;;;;2.00;2.00;;;16.90;97.40;;;;;;5085096;28;20221;-72
2021/06/21 04:37:24;;;;;;;3.70;3.40;;;16.90;97.40;;;;;;5085732;28;20179;-72
2021/06/21 04:39:50;;;;;;;5.65;3.38;;;16.90;97.20;;;;;;5082326;28;20727;-73
2021/06/21 04:42:15;;;;;;;3.78;3.47;;;17.00;97.20;;;;;;5086982;28;20656;-75
2021/06/21 04:44:41;;;;;;;7.47;3.75;;;17.00;97.70;;;;;;5085860;28;20174;-72
2021/06/21 04:47:07;;;;;;;3.63;3.33;;;17.10;97.40;;;;;;5085985;28;20193;-73
2021/06/21 04:49:33;;;;;;;3.13;3.03;;;17.10;97.50;;;;;;5085226;28;20190;-73
2021/06/21 04:51:58;;;;;;;3.60;3.33;;;17.20;97.70;;;;;;5086227;28;20916;-73
2021/06/21 04:54:24;;;;;;;5.38;3.45;;;17.20;97.70;;;;;;5085013;28;20217;-73
2021/06/21 04:56:50;;;;;;;3.97;3.67;;;17.20;97.90;;;;;;5082300;28;20266;-73
2021/06/21 04:59:15;;;;;;;3.15;2.95;;;17.30;97.60;;;;;;5086503;28;20689;-72
2021/06/21 05:01:41;;;;;;;3.72;3.50;;;17.30;97.60;;;;;;5088189;28;20233;-72
2021/06/21 05:04:07;;;;;;;3.67;3.38;;;17.30;97.50;;;;;;5088638;28;20758;-72
2021/06/21 05:06:34;;;;;;;3.78;3.50;;;17.40;97.50;;;;;;5087002;28;20234;-72
2021/06/21 05:09:00;;;;;;;2.78;2.47;;;17.40;97.60;;;;;;5085820;28;20655;-73
2021/06/21 05:11:27;;;;;;;3.35;3.15;;;17.50;97.50;;;;;;5088247;28;20207;-72
2021/06/21 05:13:53;;;;;;;4.07;3.72;;;17.50;97.20;;;;;;5085762;28;20197;-71
2021/06/21 05:16:19;;;;;;;4.40;3.28;;;17.50;97.20;;;;;;5086803;28;20198;-72
2021/06/21 05:18:45;;;;;;;7.40;3.60;;;17.60;97.10;;;;;;5088155;28;20201;-73
2021/06/21 05:21:10;;;;;;;6.25;3.78;;;17.60;96.90;;;;;;5087887;28;20933;-74
2021/06/21 05:23:36;;;;;;;3.65;3.35;;;17.70;97.00;;;;;;5088067;28;20218;-73
2021/06/21 05:26:02;;;;;;;5.80;4.10;;;17.70;96.70;;;;;;5101044;28;20181;-74
2021/06/21 05:28:28;;;;;;;3.83;3.22;;;17.70;96.50;;;;;;5088640;28;20197;-70
2021/06/21 05:30:54;;;;;;;3.30;3.10;;;17.80;96.30;;;;;;5087073;28;20840;-72
2021/06/21 05:33:20;;;;;;;3.33;3.10;;;17.80;96.20;;;;;;5087009;28;20261;-72
2021/06/21 05:35:45;;;;;;;3.92;3.65;;;17.90;96.00;;;;;;5088401;28;20202;-73
2021/06/21 05:38:11;;;;;;;4.70;3.38;;;17.90;96.00;;;;;;5087559;28;20182;-71
2021/06/21 05:40:37;;;;;;;5.47;3.40;;;18.00;95.80;;;;;;5086787;28;20201;-72
2021/06/21 05:43:02;;;;;;;3.35;3.10;;;18.00;95.60;;;;;;5086232;28;20758;-72
2021/06/21 05:45:28;;;;;;;4.07;3.78;;;18.10;95.40;;;;;;5086552;28;20186;-70
2021/06/21 05:47:54;;;;;;;7.43;4.60;;;18.10;95.30;;;;;;5085982;28;20186;-70
2021/06/21 05:50:20;;;;;;;5.20;3.85;;;18.20;95.20;;;;;;5087157;28;21059;-70
2021/06/21 05:52:52;;;;;;;6.65;4.55;;;18.20;95.20;;;;;;5086930;28;20186;-70
2021/06/21 05:55:18;;;;;;;6.13;4.60;;;18.20;95.00;;;;;;5082538;28;20663;-70
2021/06/21 05:57:45;;;;;;;5.45;4.97;;;18.30;95.20;;;;;;5080152;28;20242;-70
2021/06/21 06:00:12;;;;;;;5.90;4.20;;;18.40;95.20;;;;;;5078943;28;20221;-70
2021/06/21 06:02:38;;;;;;;4.22;3.92;;;18.40;95.20;;;;;;5086691;28;20674;-70
2021/06/21 06:05:06;;;;;;;4.65;4.30;;;18.50;95.20;;;;;;5093368;28;20218;-71
2021/06/21 06:07:33;;;;;;;4.70;4.07;;;18.50;94.80;;;;;;5087416;28;20267;-69
2021/06/21 06:09:59;;;;;;;8.48;3.78;;;18.60;94.70;;;;;;5098132;28;20198;-70
2021/06/21 06:12:25;;;;;;;4.07;3.80;;;18.60;94.40;;;;;;5085912;28;20636;-70
2021/06/21 06:14:52;;;;;;;4.18;3.70;;;18.70;94.50;;;;;;5085028;28;20272;-72
2021/06/21 06:17:17;;;;;;;5.00;4.65;;;18.70;94.50;;;;;;5094558;28;20182;-72
2021/06/21 06:19:43;;;;;;;4.22;3.95;;;18.80;94.20;;;;;;5083502;28;20751;-71
2021/06/21 06:22:11;;;;;;;7.03;4.25;;;18.80;94.00;;;;;;5083529;28;20698;-71
2021/06/21 06:24:37;;;;;;;4.30;3.60;;;18.90;93.40;;;;;;5084788;28;20190;-70
2021/06/21 06:27:04;;;;;;;4.53;3.65;;;18.90;93.10;;;;;;5085783;28;20182;-70
2021/06/21 06:29:31;;;;;;;3.85;3.40;;;19.00;93.00;;;;;;5084920;28;20178;-70
2021/06/21 06:31:58;;;;;;;4.93;3.53;;;19.10;93.20;;;;;;5081512;28;20186;-69
2021/06/21 06:34:24;;;;;;;4.10;3.90;;;19.20;93.20;;;;;;5085734;28;20181;-70
2021/06/21 06:36:51;;;;;;;7.03;4.88;;;19.20;92.90;;;;;;5085170;28;20257;-70
2021/06/21 06:39:17;;;;;;;4.43;4.05;;;19.30;92.70;;;;;;5083468;28;20213;-70
2021/06/21 06:41:43;;;;;;;3.88;3.58;;;19.40;92.80;;;;;;5085405;28;20186;-70
2021/06/21 06:44:09;;;;;;;7.18;4.63;;;19.50;93.10;;;;;;5085150;28;20182;-70
2021/06/21 06:46:35;;;;;;;6.07;4.15;;;19.50;92.40;;;;;;5083973;28;20205;-70
2021/06/21 06:49:00;;;;;;;3.88;3.67;;;19.60;92.60;;;;;;5093812;28;20190;-70
2021/06/21 06:51:35;;;;;;;6.43;4.63;;;19.70;92.60;;;;;;5076941;28;20194;-72
2021/06/21 06:54:05;;;;;;;4.45;3.92;;;19.80;92.10;;;;;;5083165;28;20753;-70
2021/06/21 06:59:16;;;;;;;4.15;3.92;;;19.90;91.80;;;;;;5091617;28;20220;-70
2021/06/21 07:01:44;;;;;;;4.18;3.88;;;20.00;91.80;;;;;;5090434;28;20195;-71
2021/06/21 07:04:10;;;;;;;5.25;4.85;;;20.10;92.00;;;;;;5089691;28;20186;-70
2021/06/21 07:06:36;;;;;;;5.50;4.38;;;20.10;91.60;;;;;;5089144;28;20645;-70
2021/06/21 07:09:02;;;;;;;5.20;4.70;;;20.20;91.20;;;;;;5091289;28;20261;-70
2021/06/21 07:11:29;;;;;;;8.73;4.57;;;20.30;91.10;;;;;;5092723;28;20210;-70
2021/06/21 07:13:54;;;;;;;5.05;4.78;;;20.40;90.80;;;;;;5093521;28;20209;-71
2021/06/21 07:16:20;;;;;;;5.30;4.45;;;20.40;90.90;;;;;;5092675;28;20198;-73
2021/06/21 07:18:46;;;;;;;5.28;4.55;;;20.50;90.50;;;;;;5095074;28;20262;-70
2021/06/21 07:21:12;;;;;;;4.60;4.10;;;20.60;90.50;;;;;;5091896;28;20901;-70
2021/06/21 07:23:38;;;;;;;5.05;4.47;;;20.70;90.80;;;;;;5095402;28;20237;-70
2021/06/21 07:26:05;;;;;;;4.28;3.88;;;20.80;90.90;;;;;;5091631;28;20213;-70
2021/06/21 07:28:31;;;;;;;4.80;4.40;;;20.90;90.70;;;;;;5092804;28;20193;-70
2021/06/21 07:30:57;;;;;;;4.93;4.53;;;20.90;90.30;;;;;;5093266;28;20600;-70
2021/06/21 07:33:23;;;;;;;4.60;4.20;;;21.00;89.20;;;;;;5096761;28;20189;-70
2021/06/21 07:35:50;;;;;;;4.10;3.85;;;21.10;89.20;;;;;;5087829;28;20203;-70
2021/06/21 07:38:19;;;;;;;6.18;4.60;;;21.20;89.20;;;;;;5091282;28;20226;-70
2021/06/21 07:40:46;;;;;;;4.63;3.72;;;21.30;88.80;;;;;;5087407;28;20185;-71
2021/06/21 07:43:12;;;;;;;4.25;3.95;;;21.40;88.80;;;;;;5093945;28;20178;-71
2021/06/21 07:45:38;;;;;;;6.30;4.18;;;21.40;89.10;;;;;;5095047;28;20177;-71
2021/06/21 07:48:04;;;;;;;4.00;3.63;;;21.50;88.90;;;;;;5094421;28;20174;-70
2021/06/21 07:50:31;;;;;;;4.03;3.72;;;21.60;88.60;;;;;;5093806;28;20178;-71
2021/06/21 07:52:57;;;;;;;3.90;3.60;;;21.70;88.20;;;;;;5091451;28;20586;-71
2021/06/21 07:55:27;;;;;;;5.40;3.50;;;21.80;88.20;;;;;;5090172;28;20182;-72
2021/06/21 07:57:56;;;;;;;5.22;4.03;;;21.90;88.00;;;;;;5087195;28;20179;-71
2021/06/21 08:00:24;;;;;;;4.00;3.55;;;21.90;88.00;;;;;;5095282;28;20262;-71
2021/06/21 08:02:54;;;;;;;4.28;3.45;;;22.00;87.60;;;;;;5090160;28;20174;-71
2021/06/21 08:05:21;;;;;;;2.97;2.88;;;22.10;87.50;;;;;;5086511;28;20193;-71
2021/06/21 08:07:47;;;;;;;4.35;3.92;;;22.20;87.60;;;;;;5095530;28;20181;-73
2021/06/21 08:10:14;;;;;;;16.90;12.50;;;22.20;87.30;;;;;;5085540;28;20265;-72
2021/06/21 08:12:41;;;;;;;9.02;7.10;;;22.30;87.00;;;;;;5092272;28;20178;-71
2021/06/21 08:15:09;;;;;;;5.50;3.35;;;22.40;86.90;;;;;;5091277;28;20198;-71
2021/06/21 08:17:35;;;;;;;3.30;3.03;;;22.50;87.00;;;;;;5086648;28;20186;-72
2021/06/21 08:20:01;;;;;;;5.25;3.30;;;22.60;86.80;;;;;;5089507;28;20212;-72
2021/06/21 08:22:26;;;;;;;5.88;3.50;;;22.70;86.30;;;;;;5089682;28;20186;-71
2021/06/21 08:24:52;;;;;;;4.65;3.10;;;22.80;86.10;;;;;;5093270;28;20236;-70
2021/06/21 08:27:19;;;;;;;4.07;3.00;;;22.80;85.90;;;;;;5087109;28;20706;-70
2021/06/21 08:29:45;;;;;;;6.20;3.97;;;22.90;85.80;;;;;;5087159;28;20185;-72
2021/06/21 08:32:12;;;;;;;5.15;2.80;;;23.00;85.80;;;;;;5083074;28;20206;-71
2021/06/21 08:34:38;;;;;;;5.13;2.35;;;23.10;85.20;;;;;;5084770;28;20573;-71
2021/06/21 08:37:05;;;;;;;3.05;2.80;;;23.30;85.30;;;;;;5080213;28;20667;-70
2021/06/21 08:39:31;;;;;;;2.47;1.95;;;23.40;84.40;;;;;;5078723;28;20229;-72
2021/06/21 08:42:00;;;;;;;2.28;2.10;;;23.50;84.00;;;;;;5086794;28;20187;-72
2021/06/21 08:44:28;;;;;;;1.73;1.73;;;23.50;82.50;;;;;;5089373;28;20190;-70
2021/06/21 08:46:55;;;;;;;2.28;2.25;;;23.60;81.70;;;;;;5083671;28;20218;-71
2021/06/21 08:49:21;;;;;;;2.90;1.67;;;23.70;82.20;;;;;;5085144;28;20179;-71
2021/06/21 08:51:50;;;;;;;1.95;1.85;;;23.80;82.80;;;;;;5086295;28;20182;-71
2021/06/21 08:54:15;;;;;;;2.00;1.90;;;23.90;81.10;;;;;;5081707;28;20182;-71
2021/06/21 08:56:41;;;;;;;1.92;1.92;;;23.90;82.40;;;;;;5078405;28;20661;-70
2021/06/21 08:59:08;;;;;;;2.10;2.00;;;24.10;82.90;;;;;;5084886;28;20950;-70
2021/06/21 09:01:38;;;;;;;2.08;1.98;;;24.20;82.50;;;;;;5085146;28;20174;-69
2021/06/21 09:04:05;;;;;;;1.77;1.73;;;24.30;79.80;;;;;;5073532;28;20244;-68
2021/06/21 09:06:39;;;;;;;1.77;1.67;;;24.40;80.20;;;;;;5075196;28;20182;-69
2021/06/21 09:09:06;;;;;;;1.58;1.48;;;24.50;81.00;;;;;;5080226;28;20186;-69
2021/06/21 09:11:49;;;;;;;1.90;1.90;;;24.60;80.40;;;;;;5085578;28;20794;-71
2021/06/21 09:14:29;;;;;;;1.60;1.58;;;24.70;80.60;;;;;;5084682;28;20182;-68
2021/06/21 09:17:09;;;;;;;2.13;1.92;;;24.80;80.00;;;;;;5084775;28;20550;-69
2021/06/21 09:19:53;;;;;;;2.97;1.77;;;25.00;78.40;;;;;;5080953;28;20220;-70
2021/06/21 09:22:31;;;;;;;1.60;1.60;;;25.10;78.30;;;;;;5084256;28;20262;-69
2021/06/21 09:24:59;;;;;;;1.67;1.30;;;25.20;78.20;;;;;;5083993;28;20247;-69
2021/06/21 09:27:26;;;;;;;1.75;1.65;;;25.30;78.90;;;;;;5085522;28;20179;-69
2021/06/21 09:29:52;;;;;;;1.70;1.60;;;25.40;77.60;;;;;;5083811;28;20267;-69
2021/06/21 09:32:19;;;;;;;1.52;1.42;;;25.50;77.90;;;;;;5067985;28;20190;-69
2021/06/21 09:34:45;;;;;;;3.63;1.92;;;25.60;77.60;;;;;;5067438;28;20179;-69
2021/06/21 09:37:18;;;;;;;2.30;1.38;;;25.70;77.90;;;;;;5072979;28;20181;-69
2021/06/21 09:39:49;;;;;;;1.50;1.50;;;25.80;77.40;;;;;;5084875;28;20306;-69
2021/06/21 09:42:23;;;;;;;1.60;1.33;;;25.90;75.90;;;;;;5081439;28;20690;-71
2021/06/21 09:44:49;;;;;;;1.23;1.23;;;26.00;75.30;;;;;;5082098;28;20194;-71
2021/06/21 09:47:16;;;;;;;1.85;1.40;;;26.20;75.40;;;;;;5084369;28;20185;-75
2021/06/21 09:50:16;;;;;;;1.33;1.33;;;26.30;73.80;;;;;;5092609;28;20674;-72
2021/06/21 09:52:50;;;;;;;1.15;1.05;;;26.40;71.70;;;;;;5027016;28;20601;-72
2021/06/21 09:55:52;;;;;;;0.88;0.88;;;26.50;73.70;;;;;;5047217;28;20299;-72
2021/06/21 09:58:21;;;;;;;1.30;1.30;;;26.60;73.80;;;;;;5041272;28;20198;-72
2021/06/21 10:00:49;;;;;;;1.10;1.10;;;26.80;72.90;;;;;;5049144;28;20264;-72
2021/06/21 10:03:22;;;;;;;1.70;1.50;;;26.90;73.20;;;;;;5045715;28;20179;-72
2021/06/21 10:06:08;;;;;;;1.27;1.27;;;27.00;72.40;;;;;;5048834;28;20195;-72
2021/06/21 10:08:48;;;;;;;0.93;0.93;;;27.20;71.20;;;;;;5048589;28;20199;-72
2021/06/21 10:11:36;;;;;;;4.13;1.48;;;27.30;71.50;;;;;;5046387;28;20269;-72
2021/06/21 10:14:04;;;;;;;1.33;1.33;;;27.50;68.00;;;;;;5029868;28;20188;-73
2021/06/21 10:16:30;;;;;;;1.70;1.42;;;27.60;68.20;;;;;;5048416;28;20210;-73
2021/06/21 10:18:56;;;;;;;2.40;1.10;;;27.70;68.30;;;;;;5037638;28;20207;-72
2021/06/21 10:21:26;;;;;;;1.45;1.35;;;27.90;67.80;;;;;;5038015;28;20194;-72
2021/06/21 10:23:52;;;;;;;1.30;1.30;;;28.10;66.70;;;;;;5034551;28;20183;-72
2021/06/21 10:26:19;;;;;;;1.10;1.10;;;28.50;66.70;;;;;;5032708;28;20192;-72
2021/06/21 10:28:49;;;;;;;0.93;0.93;;;28.80;63.80;;;;;;5043352;28;20209;-71
2021/06/21 10:31:26;;;;;;;1.27;1.27;;;29.30;62.40;;;;;;5075976;28;21227;-72
2021/06/21 10:34:05;;;;;;;1.45;1.25;;;29.60;64.40;;;;;;5070415;28;20194;-72
2021/06/21 10:36:45;;;;;;;1.30;1.30;;;30.10;63.30;;;;;;5072947;28;20212;-72
2021/06/21 10:39:21;;;;;;;1.25;1.25;;;30.70;62.50;;;;;;5082888;28;20220;-72
2021/06/21 10:42:05;;;;;;;2.15;1.35;;;31.30;61.90;;;;;;5091726;28;20192;-72
2021/06/21 10:44:47;;;;;;;1.58;1.50;;;31.70;59.70;;;;;;5078856;28;20196;-72
2021/06/21 10:47:32;;;;;;;1.50;1.50;;;31.90;60.30;;;;;;5081396;28;20193;-72
2021/06/21 10:49:57;;;;;;;1.30;1.30;;;32.10;59.80;;;;;;5083269;28;20184;-72
2021/06/21 10:52:33;;;;;;;1.65;1.20;;;32.20;61.10;;;;;;5076861;28;20182;-73
2021/06/21 10:55:21;;;;;;;1.25;1.25;;;32.40;58.80;;;;;;5089468;28;20651;-72
2021/06/21 10:57:54;;;;;;;1.23;1.23;;;32.70;57.70;;;;;;5089317;28;20192;-72
2021/06/21 11:00:45;;;;;;;5.40;1.38;;;33.20;58.90;;;;;;5091382;28;20249;-73
2021/06/21 11:03:26;;;;;;;5.45;1.33;;;33.70;57.20;;;;;;5060132;28;20273;-73
2021/06/21 11:05:56;;;;;;;1.75;1.25;;;34.40;56.20;;;;;;5061844;28;20284;-72
2021/06/21 11:08:26;;;;;;;1.52;1.42;;;35.00;55.90;;;;;;5059128;28;20205;-73
2021/06/21 11:10:57;;;;;;;2.58;1.15;;;35.70;54.70;;;;;;5060243;28;20678;-72
2021/06/21 11:13:39;;;;;;;1.48;1.38;;;36.20;54.30;;;;;;5060393;28;20186;-73
2021/06/21 11:16:20;;;;;;;0.90;0.90;;;36.90;52.90;;;;;;5058374;28;20759;-73
2021/06/21 11:19:13;;;;;;;1.00;1.00;;;37.50;51.90;;;;;;5048647;28;20244;-72
2021/06/21 11:21:59;;;;;;;0.80;0.80;;;38.10;50.30;;;;;;5065481;28;20586;-73
2021/06/21 11:24:42;;;;;;;1.02;1.02;;;38.50;48.50;;;;;;5061080;28;20186;-72
2021/06/21 11:27:25;;;;;;;0.70;0.70;;;38.90;49.20;;;;;;5055723;28;20193;-72
2021/06/21 11:29:58;;;;;;;0.68;0.68;;;39.30;48.30;;;;;;5052656;28;20270;-70
2021/06/21 11:32:25;;;;;;;0.93;0.90;;;39.70;47.50;;;;;;5046541;28;20182;-72
2021/06/21 11:35:01;;;;;;;1.15;0.82;;;40.10;48.70;;;;;;5048510;28;20281;-71
2021/06/21 11:37:28;;;;;;;0.80;0.75;;;40.50;46.90;;;;;;5054352;28;20201;-71
2021/06/21 11:40:16;;;;;;;1.00;0.60;;;41.00;48.20;;;;;;5069798;28;20803;-72
2021/06/21 11:42:57;;;;;;;0.70;0.70;;;41.50;45.00;;;;;;5085951;28;20177;-72
2021/06/21 11:45:49;;;;;;;0.50;0.50;;;41.80;45.30;;;;;;5087583;28;20181;-71
2021/06/21 11:48:37;;;;;;;0.73;0.73;;;41.90;44.30;;;;;;5080218;28;20575;-72
2021/06/21 11:51:12;;;;;;;0.80;0.80;;;42.00;46.20;;;;;;5082112;28;20539;-72
2021/06/21 11:53:42;;;;;;;2.83;0.57;;;41.50;46.90;;;;;;5086751;28;20193;-71
2021/06/21 11:56:07;;;;;;;0.70;0.70;;;40.60;47.60;;;;;;5089876;28;20238;-71
2021/06/21 11:58:33;;;;;;;0.70;0.70;;;40.00;47.20;;;;;;5089209;28;20205;-71
2021/06/21 12:01:00;;;;;;;1.00;0.50;;;39.90;47.90;;;;;;5086687;28;20175;-71
2021/06/21 12:03:32;;;;;;;0.50;0.50;;;40.10;47.50;;;;;;5085710;28;20185;-71
2021/06/21 12:05:58;;;;;;;0.40;0.40;;;40.20;48.30;;;;;;5084944;28;20170;-72
2021/06/21 12:08:25;;;;;;;0.50;0.50;;;40.40;46.80;;;;;;5079466;28;20201;-72
2021/06/21 12:10:50;;;;;;;0.60;0.60;;;40.80;48.30;;;;;;5087505;28;20182;-71
2021/06/21 12:13:21;;;;;;;1.48;0.60;;;41.00;50.00;;;;;;5089641;28;20189;-72
2021/06/21 12:15:47;;;;;;;0.70;0.70;;;40.60;48.30;;;;;;5082261;28;20198;-72
2021/06/21 12:18:13;;;;;;;0.60;0.60;;;39.80;48.90;;;;;;5087618;28;20186;-72
2021/06/21 12:20:39;;;;;;;0.50;0.50;;;39.20;49.00;;;;;;5088683;28;20182;-72
2021/06/21 12:23:08;;;;;;;0.60;0.60;;;38.40;49.20;;;;;;5080591;28;20186;-72
2021/06/21 12:25:43;;;;;;;0.55;0.55;;;37.60;51.80;;;;;;5086768;28;20213;-72
2021/06/21 12:28:26;;;;;;;0.70;0.70;;;37.40;50.50;;;;;;5086768;28;20657;-72
2021/06/21 12:30:56;;;;;;;2.58;0.82;;;37.80;50.10;;;;;;5088773;28;20182;-72
2021/06/21 12:33:34;;;;;;;1.08;0.50;;;38.50;49.00;;;;;;5086660;28;20196;-72
2021/06/21 12:36:03;;;;;;;0.55;0.55;;;39.00;48.40;;;;;;5085023;28;20256;-72
2021/06/21 12:38:30;;;;;;;0.57;0.50;;;39.30;48.60;;;;;;5079634;28;20206;-72
2021/06/21 12:40:56;;;;;;;0.40;0.40;;;39.40;49.50;;;;;;5077636;28;20691;-72
2021/06/21 12:43:22;;;;;;;0.50;0.50;;;39.30;45.10;;;;;;5087538;28;20196;-72
2021/06/21 12:45:47;;;;;;;0.40;0.40;;;39.00;47.50;;;;;;5081060;28;20180;-71
2021/06/21 12:48:13;;;;;;;1.35;0.60;;;39.20;47.40;;;;;;5072912;28;20262;-71
2021/06/21 12:50:39;;;;;;;0.70;0.70;;;39.70;47.50;;;;;;5076165;28;20578;-72
2021/06/21 12:53:08;;;;;;;0.88;0.85;;;40.40;49.60;;;;;;5088128;28;20195;-72
2021/06/21 12:55:35;;;;;;;0.70;0.70;;;40.90;48.90;;;;;;5085412;28;20177;-71
2021/06/21 12:58:06;;;;;;;0.60;0.60;;;41.40;47.70;;;;;;5084033;28;20282;-71
2021/06/21 13:00:45;;;;;;;0.40;0.40;;;41.80;44.60;;;;;;5082722;28;20210;-71
2021/06/21 13:03:22;;;;;;;0.50;0.50;;;42.00;44.30;;;;;;5087566;28;20205;-70